sensor_id;sensor_type;location;lat;lon;timestamp;P1;durP1;ratioP1;P2;durP2;ratioP2
15132;SDS011;7667;51.232;17.110;2023-06-26T00:01:44;6.17;;;5.17;;
15132;SDS011;7667;51.232;17.110;2023-06-26T00:04:12;5.30;;;4.47;;
15132;SDS011;7667;51.232;17.110;2023-06-26T00:06:41;5.63;;;5.03;;
15132;SDS011;7667;51.232;17.110;2023-06-26T00:09:09;5.60;;;5.00;;
15132;SDS011;7667;51.232;17.110;2023-06-26T00:11:37;6.80;;;4.93;;
15132;SDS011;7667;51.232;17.110;2023-06-26T00:14:04;5.70;;;4.93;;
15132;SDS011;7667;51.232;17.110;2023-06-26T00:16:33;5.53;;;5.03;;
15132;SDS011;7667;51.232;17.110;2023-06-26T00:19:00;5.67;;;5.17;;
15132;SDS011;7667;51.232;17.110;2023-06-26T00:21:28;6.27;;;4.83;;
15132;SDS011;7667;51.232;17.110;2023-06-26T00:23:55;6.30;;;5.10;;
15132;SDS011;7667;51.232;17.110;2023-06-26T00:26:23;5.73;;;5.13;;
15132;SDS011;7667;51.232;17.110;2023-06-26T00:28:51;5.67;;;5.07;;
15132;SDS011;7667;51.232;17.110;2023-06-26T00:31:18;6.67;;;5.83;;
15132;SDS011;7667;51.232;17.110;2023-06-26T00:33:46;5.90;;;5.30;;
15132;SDS011;7667;51.232;17.110;2023-06-26T00:36:13;6.77;;;5.60;;
15132;SDS011;7667;51.232;17.110;2023-06-26T00:38:41;7.87;;;5.53;;
15132;SDS011;7667;51.232;17.110;2023-06-26T00:41:09;7.33;;;5.80;;
15132;SDS011;7667;51.232;17.110;2023-06-26T00:43:39;6.70;;;5.77;;
15132;SDS011;7667;51.232;17.110;2023-06-26T00:46:08;6.50;;;5.30;;
15132;SDS011;7667;51.232;17.110;2023-06-26T00:48:39;7.07;;;5.57;;
15132;SDS011;7667;51.232;17.110;2023-06-26T00:51:12;6.50;;;5.50;;
15132;SDS011;7667;51.232;17.110;2023-06-26T00:53:39;5.83;;;5.17;;
15132;SDS011;7667;51.232;17.110;2023-06-26T00:56:08;5.40;;;4.90;;
15132;SDS011;7667;51.232;17.110;2023-06-26T00:58:37;5.90;;;5.27;;
15132;SDS011;7667;51.232;17.110;2023-06-26T01:01:05;5.77;;;5.17;;
15132;SDS011;7667;51.232;17.110;2023-06-26T01:03:35;5.43;;;4.93;;
15132;SDS011;7667;51.232;17.110;2023-06-26T01:06:06;7.80;;;5.87;;
15132;SDS011;7667;51.232;17.110;2023-06-26T01:08:38;6.90;;;6.00;;
15132;SDS011;7667;51.232;17.110;2023-06-26T01:11:08;5.90;;;5.30;;
15132;SDS011;7667;51.232;17.110;2023-06-26T01:13:36;6.77;;;5.90;;
15132;SDS011;7667;51.232;17.110;2023-06-26T01:16:04;6.20;;;5.60;;
15132;SDS011;7667;51.232;17.110;2023-06-26T01:18:32;6.13;;;5.53;;
15132;SDS011;7667;51.232;17.110;2023-06-26T01:21:02;6.97;;;6.27;;
15132;SDS011;7667;51.232;17.110;2023-06-26T01:23:34;6.43;;;5.83;;
15132;SDS011;7667;51.232;17.110;2023-06-26T01:26:48;6.97;;;5.87;;
15132;SDS011;7667;51.232;17.110;2023-06-26T01:29:18;6.63;;;5.93;;
15132;SDS011;7667;51.232;17.110;2023-06-26T01:31:47;6.87;;;6.20;;
15132;SDS011;7667;51.232;17.110;2023-06-26T01:34:16;7.40;;;6.70;;
15132;SDS011;7667;51.232;17.110;2023-06-26T01:36:45;6.77;;;6.07;;
15132;SDS011;7667;51.232;17.110;2023-06-26T01:39:15;7.33;;;6.63;;
15132;SDS011;7667;51.232;17.110;2023-06-26T01:41:45;7.27;;;6.53;;
15132;SDS011;7667;51.232;17.110;2023-06-26T01:44:29;7.70;;;6.80;;
15132;SDS011;7667;51.232;17.110;2023-06-26T01:47:00;7.13;;;6.43;;
15132;SDS011;7667;51.232;17.110;2023-06-26T01:49:46;6.87;;;6.17;;
15132;SDS011;7667;51.232;17.110;2023-06-26T01:52:21;6.17;;;5.53;;
15132;SDS011;7667;51.232;17.110;2023-06-26T01:58:02;7.13;;;6.43;;
15132;SDS011;7667;51.232;17.110;2023-06-26T02:00:30;8.00;;;6.20;;
15132;SDS011;7667;51.232;17.110;2023-06-26T02:03:00;7.30;;;6.17;;
15132;SDS011;7667;51.232;17.110;2023-06-26T02:05:27;7.03;;;6.33;;
15132;SDS011;7667;51.232;17.110;2023-06-26T02:07:57;8.90;;;5.93;;
15132;SDS011;7667;51.232;17.110;2023-06-26T02:10:25;8.00;;;6.57;;
15132;SDS011;7667;51.232;17.110;2023-06-26T02:12:53;7.23;;;6.30;;
15132;SDS011;7667;51.232;17.110;2023-06-26T02:15:20;7.50;;;6.23;;
15132;SDS011;7667;51.232;17.110;2023-06-26T02:17:48;7.20;;;6.27;;
15132;SDS011;7667;51.232;17.110;2023-06-26T02:20:16;7.57;;;5.87;;
15132;SDS011;7667;51.232;17.110;2023-06-26T02:22:43;6.37;;;5.77;;
15132;SDS011;7667;51.232;17.110;2023-06-26T02:25:11;6.73;;;5.63;;
15132;SDS011;7667;51.232;17.110;2023-06-26T02:27:39;9.40;;;6.17;;
15132;SDS011;7667;51.232;17.110;2023-06-26T02:30:07;7.43;;;5.83;;
15132;SDS011;7667;51.232;17.110;2023-06-26T02:32:36;6.87;;;5.80;;
15132;SDS011;7667;51.232;17.110;2023-06-26T02:35:03;8.80;;;6.00;;
15132;SDS011;7667;51.232;17.110;2023-06-26T02:37:31;8.10;;;5.77;;
15132;SDS011;7667;51.232;17.110;2023-06-26T02:39:59;6.83;;;6.10;;
15132;SDS011;7667;51.232;17.110;2023-06-26T02:42:27;6.13;;;5.53;;
15132;SDS011;7667;51.232;17.110;2023-06-26T02:44:54;6.67;;;5.60;;
15132;SDS011;7667;51.232;17.110;2023-06-26T02:47:22;6.23;;;5.63;;
15132;SDS011;7667;51.232;17.110;2023-06-26T02:49:49;8.63;;;6.50;;
15132;SDS011;7667;51.232;17.110;2023-06-26T02:52:17;6.63;;;6.00;;
15132;SDS011;7667;51.232;17.110;2023-06-26T02:54:45;7.13;;;6.17;;
15132;SDS011;7667;51.232;17.110;2023-06-26T02:57:13;7.80;;;6.10;;
15132;SDS011;7667;51.232;17.110;2023-06-26T02:59:41;7.80;;;6.13;;
15132;SDS011;7667;51.232;17.110;2023-06-26T03:02:08;7.03;;;5.73;;
15132;SDS011;7667;51.232;17.110;2023-06-26T03:04:36;7.80;;;5.80;;
15132;SDS011;7667;51.232;17.110;2023-06-26T03:07:04;6.93;;;5.97;;
15132;SDS011;7667;51.232;17.110;2023-06-26T03:09:31;7.63;;;6.03;;
15132;SDS011;7667;51.232;17.110;2023-06-26T03:11:59;6.97;;;6.27;;
15132;SDS011;7667;51.232;17.110;2023-06-26T03:14:27;8.53;;;6.00;;
15132;SDS011;7667;51.232;17.110;2023-06-26T03:16:55;8.13;;;6.33;;
15132;SDS011;7667;51.232;17.110;2023-06-26T03:19:24;7.47;;;6.47;;
15132;SDS011;7667;51.232;17.110;2023-06-26T03:21:52;7.67;;;6.87;;
15132;SDS011;7667;51.232;17.110;2023-06-26T03:24:21;7.33;;;6.50;;
15132;SDS011;7667;51.232;17.110;2023-06-26T03:26:49;6.27;;;5.67;;
15132;SDS011;7667;51.232;17.110;2023-06-26T03:29:18;6.20;;;5.60;;
15132;SDS011;7667;51.232;17.110;2023-06-26T03:31:45;7.83;;;5.87;;
15132;SDS011;7667;51.232;17.110;2023-06-26T03:34:13;6.13;;;5.53;;
15132;SDS011;7667;51.232;17.110;2023-06-26T03:36:40;7.73;;;5.53;;
15132;SDS011;7667;51.232;17.110;2023-06-26T03:39:08;7.93;;;6.00;;
15132;SDS011;7667;51.232;17.110;2023-06-26T03:41:35;6.73;;;5.70;;
15132;SDS011;7667;51.232;17.110;2023-06-26T03:44:03;6.83;;;5.97;;
15132;SDS011;7667;51.232;17.110;2023-06-26T03:46:31;7.57;;;6.20;;
15132;SDS011;7667;51.232;17.110;2023-06-26T03:48:58;8.00;;;7.20;;
15132;SDS011;7667;51.232;17.110;2023-06-26T03:51:26;9.10;;;8.00;;
15132;SDS011;7667;51.232;17.110;2023-06-26T03:53:54;10.13;;;7.70;;
15132;SDS011;7667;51.232;17.110;2023-06-26T03:56:21;10.83;;;7.53;;
15132;SDS011;7667;51.232;17.110;2023-06-26T03:58:49;10.30;;;8.03;;
15132;SDS011;7667;51.232;17.110;2023-06-26T04:01:16;8.20;;;7.40;;
15132;SDS011;7667;51.232;17.110;2023-06-26T04:03:44;10.13;;;8.67;;
15132;SDS011;7667;51.232;17.110;2023-06-26T04:06:12;10.43;;;8.57;;
15132;SDS011;7667;51.232;17.110;2023-06-26T04:08:39;10.53;;;9.43;;
15132;SDS011;7667;51.232;17.110;2023-06-26T04:11:07;12.43;;;9.40;;
15132;SDS011;7667;51.232;17.110;2023-06-26T04:13:34;12.43;;;9.43;;
15132;SDS011;7667;51.232;17.110;2023-06-26T04:16:02;13.17;;;10.43;;
15132;SDS011;7667;51.232;17.110;2023-06-26T04:18:30;14.27;;;9.63;;
15132;SDS011;7667;51.232;17.110;2023-06-26T04:21:08;11.97;;;8.83;;
15132;SDS011;7667;51.232;17.110;2023-06-26T04:23:40;10.60;;;9.20;;
15132;SDS011;7667;51.232;17.110;2023-06-26T04:26:08;12.37;;;8.87;;
15132;SDS011;7667;51.232;17.110;2023-06-26T04:28:41;10.80;;;8.80;;
15132;SDS011;7667;51.232;17.110;2023-06-26T04:31:09;12.83;;;9.47;;
15132;SDS011;7667;51.232;17.110;2023-06-26T04:33:37;13.63;;;10.13;;
15132;SDS011;7667;51.232;17.110;2023-06-26T04:36:08;14.47;;;9.67;;
15132;SDS011;7667;51.232;17.110;2023-06-26T04:38:36;12.00;;;9.93;;
15132;SDS011;7667;51.232;17.110;2023-06-26T04:41:03;12.27;;;10.33;;
15132;SDS011;7667;51.232;17.110;2023-06-26T04:43:31;13.63;;;10.17;;
15132;SDS011;7667;51.232;17.110;2023-06-26T04:45:59;14.60;;;10.40;;
15132;SDS011;7667;51.232;17.110;2023-06-26T04:48:27;13.73;;;10.40;;
15132;SDS011;7667;51.232;17.110;2023-06-26T04:50:54;10.40;;;9.40;;
15132;SDS011;7667;51.232;17.110;2023-06-26T04:53:22;10.30;;;8.80;;
15132;SDS011;7667;51.232;17.110;2023-06-26T04:55:51;11.20;;;9.53;;
15132;SDS011;7667;51.232;17.110;2023-06-26T04:58:19;11.77;;;8.80;;
15132;SDS011;7667;51.232;17.110;2023-06-26T05:00:47;11.83;;;9.43;;
15132;SDS011;7667;51.232;17.110;2023-06-26T05:03:16;13.30;;;9.00;;
15132;SDS011;7667;51.232;17.110;2023-06-26T05:05:45;11.10;;;9.37;;
15132;SDS011;7667;51.232;17.110;2023-06-26T05:08:14;12.07;;;9.33;;
15132;SDS011;7667;51.232;17.110;2023-06-26T05:10:43;11.03;;;9.60;;
15132;SDS011;7667;51.232;17.110;2023-06-26T05:13:12;12.67;;;9.37;;
15132;SDS011;7667;51.232;17.110;2023-06-26T05:15:42;12.40;;;9.60;;
15132;SDS011;7667;51.232;17.110;2023-06-26T05:18:10;11.13;;;9.40;;
15132;SDS011;7667;51.232;17.110;2023-06-26T05:20:38;12.73;;;9.33;;
15132;SDS011;7667;51.232;17.110;2023-06-26T05:23:07;10.17;;;9.00;;
15132;SDS011;7667;51.232;17.110;2023-06-26T05:25:35;13.80;;;9.37;;
15132;SDS011;7667;51.232;17.110;2023-06-26T05:28:04;11.00;;;9.80;;
15132;SDS011;7667;51.232;17.110;2023-06-26T05:30:33;12.37;;;9.60;;
15132;SDS011;7667;51.232;17.110;2023-06-26T05:33:02;13.10;;;10.13;;
15132;SDS011;7667;51.232;17.110;2023-06-26T05:35:33;12.37;;;10.17;;
15132;SDS011;7667;51.232;17.110;2023-06-26T05:38:03;13.10;;;10.00;;
15132;SDS011;7667;51.232;17.110;2023-06-26T05:40:31;13.80;;;10.43;;
15132;SDS011;7667;51.232;17.110;2023-06-26T05:43:00;12.23;;;9.97;;
15132;SDS011;7667;51.232;17.110;2023-06-26T05:45:29;13.27;;;10.03;;
15132;SDS011;7667;51.232;17.110;2023-06-26T05:47:56;13.73;;;10.73;;
15132;SDS011;7667;51.232;17.110;2023-06-26T05:50:24;13.87;;;10.37;;
15132;SDS011;7667;51.232;17.110;2023-06-26T05:52:53;12.93;;;10.43;;
15132;SDS011;7667;51.232;17.110;2023-06-26T05:55:21;14.33;;;10.40;;
15132;SDS011;7667;51.232;17.110;2023-06-26T05:57:49;13.73;;;9.93;;
15132;SDS011;7667;51.232;17.110;2023-06-26T06:00:18;14.43;;;10.77;;
15132;SDS011;7667;51.232;17.110;2023-06-26T06:02:46;15.43;;;10.87;;
15132;SDS011;7667;51.232;17.110;2023-06-26T06:05:14;16.00;;;11.90;;
15132;SDS011;7667;51.232;17.110;2023-06-26T06:07:41;15.87;;;11.20;;
15132;SDS011;7667;51.232;17.110;2023-06-26T06:10:09;15.27;;;11.57;;
15132;SDS011;7667;51.232;17.110;2023-06-26T06:12:37;17.97;;;11.73;;
15132;SDS011;7667;51.232;17.110;2023-06-26T06:15:05;14.43;;;12.03;;
15132;SDS011;7667;51.232;17.110;2023-06-26T06:17:33;15.17;;;11.60;;
15132;SDS011;7667;51.232;17.110;2023-06-26T06:20:01;14.77;;;10.70;;
15132;SDS011;7667;51.232;17.110;2023-06-26T06:22:30;17.97;;;10.83;;
15132;SDS011;7667;51.232;17.110;2023-06-26T06:24:58;13.97;;;10.23;;
15132;SDS011;7667;51.232;17.110;2023-06-26T06:27:26;12.73;;;9.70;;
15132;SDS011;7667;51.232;17.110;2023-06-26T06:29:54;12.20;;;9.02;;
15132;SDS011;7667;51.232;17.110;2023-06-26T06:32:22;11.13;;;8.57;;
15132;SDS011;7667;51.232;17.110;2023-06-26T06:34:49;11.00;;;7.60;;
15132;SDS011;7667;51.232;17.110;2023-06-26T06:37:17;11.45;;;7.30;;
15132;SDS011;7667;51.232;17.110;2023-06-26T06:39:44;10.30;;;6.07;;
15132;SDS011;7667;51.232;17.110;2023-06-26T06:42:12;9.70;;;6.30;;
15132;SDS011;7667;51.232;17.110;2023-06-26T06:44:40;9.38;;;6.70;;
15132;SDS011;7667;51.232;17.110;2023-06-26T06:47:07;8.07;;;6.00;;
15132;SDS011;7667;51.232;17.110;2023-06-26T06:49:35;8.38;;;5.75;;
15132;SDS011;7667;51.232;17.110;2023-06-26T06:52:03;7.32;;;6.03;;
15132;SDS011;7667;51.232;17.110;2023-06-26T06:54:32;8.90;;;5.75;;
15132;SDS011;7667;51.232;17.110;2023-06-26T06:57:21;7.05;;;5.28;;
15132;SDS011;7667;51.232;17.110;2023-06-26T06:59:49;8.95;;;5.13;;
15132;SDS011;7667;51.232;17.110;2023-06-26T07:02:17;6.20;;;5.40;;
15132;SDS011;7667;51.232;17.110;2023-06-26T07:04:45;7.50;;;5.07;;
15132;SDS011;7667;51.232;17.110;2023-06-26T07:07:13;5.65;;;4.53;;
15132;SDS011;7667;51.232;17.110;2023-06-26T07:09:49;6.45;;;4.65;;
15132;SDS011;7667;51.232;17.110;2023-06-26T07:12:17;7.00;;;5.10;;
15132;SDS011;7667;51.232;17.110;2023-06-26T07:14:44;7.20;;;4.63;;
15132;SDS011;7667;51.232;17.110;2023-06-26T07:17:12;6.80;;;4.70;;
15132;SDS011;7667;51.232;17.110;2023-06-26T07:19:39;5.95;;;4.57;;
15132;SDS011;7667;51.232;17.110;2023-06-26T07:22:07;5.32;;;4.60;;
15132;SDS011;7667;51.232;17.110;2023-06-26T07:24:34;6.88;;;4.65;;
15132;SDS011;7667;51.232;17.110;2023-06-26T07:27:02;6.00;;;4.20;;
15132;SDS011;7667;51.232;17.110;2023-06-26T07:29:30;5.63;;;4.15;;
15132;SDS011;7667;51.232;17.110;2023-06-26T07:31:58;4.82;;;3.72;;
15132;SDS011;7667;51.232;17.110;2023-06-26T07:34:25;4.85;;;4.07;;
15132;SDS011;7667;51.232;17.110;2023-06-26T07:36:53;5.35;;;3.95;;
15132;SDS011;7667;51.232;17.110;2023-06-26T07:39:20;5.25;;;4.10;;
15132;SDS011;7667;51.232;17.110;2023-06-26T07:41:49;4.90;;;3.88;;
15132;SDS011;7667;51.232;17.110;2023-06-26T07:44:17;3.90;;;3.50;;
15132;SDS011;7667;51.232;17.110;2023-06-26T07:46:45;5.35;;;3.72;;
15132;SDS011;7667;51.232;17.110;2023-06-26T07:49:12;4.35;;;3.53;;
15132;SDS011;7667;51.232;17.110;2023-06-26T07:51:40;7.10;;;3.92;;
15132;SDS011;7667;51.232;17.110;2023-06-26T07:54:08;6.00;;;3.85;;
15132;SDS011;7667;51.232;17.110;2023-06-26T07:56:52;4.28;;;3.50;;
15132;SDS011;7667;51.232;17.110;2023-06-26T07:59:24;4.95;;;3.60;;
15132;SDS011;7667;51.232;17.110;2023-06-26T08:01:55;3.90;;;3.28;;
15132;SDS011;7667;51.232;17.110;2023-06-26T08:04:24;4.20;;;3.50;;
15132;SDS011;7667;51.232;17.110;2023-06-26T08:06:56;4.53;;;3.05;;
15132;SDS011;7667;51.232;17.110;2023-06-26T08:09:26;4.85;;;3.60;;
15132;SDS011;7667;51.232;17.110;2023-06-26T08:11:56;4.32;;;3.13;;
15132;SDS011;7667;51.232;17.110;2023-06-26T08:14:24;3.40;;;3.05;;
15132;SDS011;7667;51.232;17.110;2023-06-26T08:16:52;4.25;;;3.45;;
15132;SDS011;7667;51.232;17.110;2023-06-26T08:19:20;3.65;;;3.10;;
15132;SDS011;7667;51.232;17.110;2023-06-26T08:21:48;4.88;;;3.20;;
15132;SDS011;7667;51.232;17.110;2023-06-26T08:24:16;6.93;;;3.30;;
15132;SDS011;7667;51.232;17.110;2023-06-26T08:26:45;3.88;;;3.40;;
15132;SDS011;7667;51.232;17.110;2023-06-26T08:29:14;5.35;;;3.45;;
15132;SDS011;7667;51.232;17.110;2023-06-26T08:31:42;3.47;;;3.13;;
15132;SDS011;7667;51.232;17.110;2023-06-26T08:34:10;6.35;;;3.63;;
15132;SDS011;7667;51.232;17.110;2023-06-26T08:36:38;4.88;;;3.38;;
15132;SDS011;7667;51.232;17.110;2023-06-26T08:39:06;4.95;;;3.65;;
15132;SDS011;7667;51.232;17.110;2023-06-26T08:41:35;4.05;;;3.30;;
15132;SDS011;7667;51.232;17.110;2023-06-26T08:44:03;3.67;;;3.38;;
15132;SDS011;7667;51.232;17.110;2023-06-26T08:46:31;4.35;;;3.72;;
15132;SDS011;7667;51.232;17.110;2023-06-26T08:49:01;4.63;;;3.92;;
15132;SDS011;7667;51.232;17.110;2023-06-26T08:51:49;5.05;;;3.67;;
15132;SDS011;7667;51.232;17.110;2023-06-26T08:54:27;3.40;;;3.08;;
15132;SDS011;7667;51.232;17.110;2023-06-26T08:57:03;5.68;;;3.50;;
15132;SDS011;7667;51.232;17.110;2023-06-26T08:59:33;4.28;;;3.22;;
15132;SDS011;7667;51.232;17.110;2023-06-26T09:02:01;4.72;;;3.78;;
15132;SDS011;7667;51.232;17.110;2023-06-26T09:04:30;6.43;;;3.78;;
15132;SDS011;7667;51.232;17.110;2023-06-26T09:06:57;5.20;;;3.63;;
15132;SDS011;7667;51.232;17.110;2023-06-26T09:09:25;5.82;;;3.58;;
15132;SDS011;7667;51.232;17.110;2023-06-26T09:11:53;6.30;;;3.70;;
15132;SDS011;7667;51.232;17.110;2023-06-26T09:14:21;6.95;;;4.13;;
15132;SDS011;7667;51.232;17.110;2023-06-26T09:16:50;5.55;;;3.50;;
15132;SDS011;7667;51.232;17.110;2023-06-26T09:19:18;5.25;;;3.58;;
15132;SDS011;7667;51.232;17.110;2023-06-26T09:21:46;4.00;;;3.60;;
15132;SDS011;7667;51.232;17.110;2023-06-26T09:24:18;5.22;;;3.60;;
15132;SDS011;7667;51.232;17.110;2023-06-26T09:26:46;3.90;;;3.40;;
15132;SDS011;7667;51.232;17.110;2023-06-26T09:29:14;7.13;;;3.60;;
15132;SDS011;7667;51.232;17.110;2023-06-26T09:31:44;3.70;;;3.30;;
15132;SDS011;7667;51.232;17.110;2023-06-26T09:34:12;6.78;;;3.80;;
15132;SDS011;7667;51.232;17.110;2023-06-26T09:36:39;4.20;;;3.17;;
15132;SDS011;7667;51.232;17.110;2023-06-26T09:39:12;4.93;;;3.55;;
15132;SDS011;7667;51.232;17.110;2023-06-26T09:41:41;3.58;;;3.17;;
15132;SDS011;7667;51.232;17.110;2023-06-26T09:44:11;5.03;;;3.17;;
15132;SDS011;7667;51.232;17.110;2023-06-26T09:46:41;3.55;;;3.22;;
15132;SDS011;7667;51.232;17.110;2023-06-26T09:49:12;4.13;;;3.10;;
15132;SDS011;7667;51.232;17.110;2023-06-26T09:51:40;3.40;;;3.10;;
15132;SDS011;7667;51.232;17.110;2023-06-26T09:54:09;3.83;;;3.10;;
15132;SDS011;7667;51.232;17.110;2023-06-26T09:56:37;3.05;;;2.75;;
15132;SDS011;7667;51.232;17.110;2023-06-26T09:59:05;4.47;;;2.88;;
15132;SDS011;7667;51.232;17.110;2023-06-26T10:01:36;3.40;;;3.08;;
15132;SDS011;7667;51.232;17.110;2023-06-26T10:04:09;3.83;;;3.28;;
15132;SDS011;7667;51.232;17.110;2023-06-26T10:06:39;4.15;;;3.40;;
15132;SDS011;7667;51.232;17.110;2023-06-26T10:09:17;5.38;;;3.50;;
15132;SDS011;7667;51.232;17.110;2023-06-26T10:14:21;4.85;;;3.20;;
15132;SDS011;7667;51.232;17.110;2023-06-26T10:16:57;3.97;;;3.42;;
15132;SDS011;7667;51.232;17.110;2023-06-26T10:19:26;3.30;;;3.00;;
15132;SDS011;7667;51.232;17.110;2023-06-26T10:21:55;6.00;;;3.33;;
15132;SDS011;7667;51.232;17.110;2023-06-26T10:24:24;3.60;;;3.30;;
15132;SDS011;7667;51.232;17.110;2023-06-26T10:26:57;3.78;;;3.33;;
15132;SDS011;7667;51.232;17.110;2023-06-26T10:29:32;3.30;;;3.00;;
15132;SDS011;7667;51.232;17.110;2023-06-26T10:32:02;3.35;;;3.05;;
15132;SDS011;7667;51.232;17.110;2023-06-26T10:34:31;3.92;;;3.10;;
15132;SDS011;7667;51.232;17.110;2023-06-26T10:36:59;4.00;;;3.60;;
15132;SDS011;7667;51.232;17.110;2023-06-26T10:39:50;3.50;;;3.20;;
15132;SDS011;7667;51.232;17.110;2023-06-26T10:42:34;3.33;;;3.03;;
15132;SDS011;7667;51.232;17.110;2023-06-26T10:45:13;3.47;;;2.97;;
15132;SDS011;7667;51.232;17.110;2023-06-26T10:47:47;4.13;;;3.50;;
15132;SDS011;7667;51.232;17.110;2023-06-26T10:50:19;3.50;;;3.20;;
15132;SDS011;7667;51.232;17.110;2023-06-26T10:53:11;3.67;;;3.30;;
15132;SDS011;7667;51.232;17.110;2023-06-26T10:56:01;3.45;;;3.15;;
15132;SDS011;7667;51.232;17.110;2023-06-26T11:01:23;3.75;;;2.97;;
15132;SDS011;7667;51.232;17.110;2023-06-26T11:04:06;3.25;;;2.90;;
15132;SDS011;7667;51.232;17.110;2023-06-26T11:06:38;3.42;;;2.88;;
15132;SDS011;7667;51.232;17.110;2023-06-26T11:09:07;3.25;;;2.90;;
15132;SDS011;7667;51.232;17.110;2023-06-26T11:14:31;6.80;;;3.10;;
15132;SDS011;7667;51.232;17.110;2023-06-26T11:17:01;3.63;;;2.85;;
15132;SDS011;7667;51.232;17.110;2023-06-26T11:19:30;3.70;;;3.20;;
15132;SDS011;7667;51.232;17.110;2023-06-26T11:21:59;3.88;;;3.00;;
15132;SDS011;7667;51.232;17.110;2023-06-26T11:24:29;3.30;;;2.95;;
15132;SDS011;7667;51.232;17.110;2023-06-26T11:27:01;4.10;;;2.97;;
15132;SDS011;7667;51.232;17.110;2023-06-26T11:29:30;3.67;;;3.38;;
15132;SDS011;7667;51.232;17.110;2023-06-26T11:32:02;3.40;;;3.08;;
15132;SDS011;7667;51.232;17.110;2023-06-26T11:34:32;4.93;;;3.20;;
15132;SDS011;7667;51.232;17.110;2023-06-26T11:37:01;3.40;;;3.00;;
15132;SDS011;7667;51.232;17.110;2023-06-26T11:39:30;5.60;;;3.00;;
15132;SDS011;7667;51.232;17.110;2023-06-26T11:41:59;4.35;;;3.40;;
15132;SDS011;7667;51.232;17.110;2023-06-26T11:44:31;4.43;;;3.20;;
15132;SDS011;7667;51.232;17.110;2023-06-26T11:46:58;3.63;;;3.30;;
15132;SDS011;7667;51.232;17.110;2023-06-26T11:49:32;3.10;;;2.90;;
15132;SDS011;7667;51.232;17.110;2023-06-26T11:52:02;3.75;;;3.10;;
15132;SDS011;7667;51.232;17.110;2023-06-26T11:54:30;3.40;;;3.10;;
15132;SDS011;7667;51.232;17.110;2023-06-26T11:56:58;3.60;;;2.92;;
15132;SDS011;7667;51.232;17.110;2023-06-26T11:59:36;2.90;;;2.60;;
15132;SDS011;7667;51.232;17.110;2023-06-26T12:02:09;4.45;;;3.15;;
15132;SDS011;7667;51.232;17.110;2023-06-26T12:04:38;3.25;;;2.95;;
15132;SDS011;7667;51.232;17.110;2023-06-26T12:07:10;3.65;;;3.10;;
15132;SDS011;7667;51.232;17.110;2023-06-26T12:09:41;3.42;;;2.95;;
15132;SDS011;7667;51.232;17.110;2023-06-26T12:12:13;4.35;;;3.33;;
15132;SDS011;7667;51.232;17.110;2023-06-26T12:14:43;3.47;;;3.17;;
15132;SDS011;7667;51.232;17.110;2023-06-26T12:17:21;3.63;;;3.25;;
15132;SDS011;7667;51.232;17.110;2023-06-26T12:19:53;4.22;;;3.25;;
15132;SDS011;7667;51.232;17.110;2023-06-26T12:22:21;3.05;;;2.75;;
15132;SDS011;7667;51.232;17.110;2023-06-26T12:24:48;3.40;;;3.10;;
15132;SDS011;7667;51.232;17.110;2023-06-26T12:27:17;5.70;;;3.08;;
15132;SDS011;7667;51.232;17.110;2023-06-26T12:29:50;3.30;;;3.00;;
15132;SDS011;7667;51.232;17.110;2023-06-26T12:32:25;4.13;;;3.05;;
15132;SDS011;7667;51.232;17.110;2023-06-26T12:34:53;3.53;;;3.22;;
15132;SDS011;7667;51.232;17.110;2023-06-26T12:37:24;3.75;;;3.35;;
15132;SDS011;7667;51.232;17.110;2023-06-26T12:39:55;3.38;;;3.08;;
15132;SDS011;7667;51.232;17.110;2023-06-26T12:42:28;3.30;;;3.00;;
15132;SDS011;7667;51.232;17.110;2023-06-26T12:44:59;3.45;;;3.15;;
15132;SDS011;7667;51.232;17.110;2023-06-26T12:48:06;3.22;;;2.92;;
15132;SDS011;7667;51.232;17.110;2023-06-26T12:50:38;3.35;;;3.05;;
15132;SDS011;7667;51.232;17.110;2023-06-26T12:53:12;3.40;;;3.10;;
15132;SDS011;7667;51.232;17.110;2023-06-26T12:55:40;3.80;;;3.35;;
15132;SDS011;7667;51.232;17.110;2023-06-26T12:58:08;3.13;;;2.70;;
15132;SDS011;7667;51.232;17.110;2023-06-26T13:00:38;3.50;;;3.20;;
15132;SDS011;7667;51.232;17.110;2023-06-26T13:03:08;3.22;;;2.92;;
15132;SDS011;7667;51.232;17.110;2023-06-26T13:05:37;2.92;;;2.70;;
15132;SDS011;7667;51.232;17.110;2023-06-26T13:08:05;3.15;;;2.83;;
15132;SDS011;7667;51.232;17.110;2023-06-26T13:10:32;2.92;;;2.72;;
15132;SDS011;7667;51.232;17.110;2023-06-26T13:13:02;3.22;;;3.03;;
15132;SDS011;7667;51.232;17.110;2023-06-26T13:15:30;3.42;;;3.03;;
15132;SDS011;7667;51.232;17.110;2023-06-26T13:17:57;3.45;;;3.15;;
15132;SDS011;7667;51.232;17.110;2023-06-26T13:20:25;3.40;;;3.08;;
15132;SDS011;7667;51.232;17.110;2023-06-26T13:22:53;3.90;;;2.90;;
15132;SDS011;7667;51.232;17.110;2023-06-26T13:25:22;3.20;;;2.90;;
15132;SDS011;7667;51.232;17.110;2023-06-26T13:27:49;3.67;;;3.28;;
15132;SDS011;7667;51.232;17.110;2023-06-26T13:30:17;3.40;;;3.10;;
15132;SDS011;7667;51.232;17.110;2023-06-26T13:32:44;2.72;;;2.53;;
15132;SDS011;7667;51.232;17.110;2023-06-26T13:35:12;3.22;;;2.55;;
15132;SDS011;7667;51.232;17.110;2023-06-26T13:37:40;3.70;;;2.58;;
15132;SDS011;7667;51.232;17.110;2023-06-26T13:40:09;3.47;;;2.67;;
15132;SDS011;7667;51.232;17.110;2023-06-26T13:42:37;2.95;;;2.72;;
15132;SDS011;7667;51.232;17.110;2023-06-26T13:45:06;2.90;;;2.60;;
15132;SDS011;7667;51.232;17.110;2023-06-26T13:47:54;3.15;;;2.50;;
15132;SDS011;7667;51.232;17.110;2023-06-26T13:50:22;2.70;;;2.50;;
15132;SDS011;7667;51.232;17.110;2023-06-26T13:52:50;2.80;;;2.50;;
15132;SDS011;7667;51.232;17.110;2023-06-26T13:55:17;3.00;;;2.70;;
15132;SDS011;7667;51.232;17.110;2023-06-26T13:57:45;3.33;;;3.03;;
15132;SDS011;7667;51.232;17.110;2023-06-26T14:00:14;3.03;;;2.72;;
15132;SDS011;7667;51.232;17.110;2023-06-26T14:02:46;2.85;;;2.53;;
15132;SDS011;7667;51.232;17.110;2023-06-26T14:05:14;3.05;;;2.75;;
15132;SDS011;7667;51.232;17.110;2023-06-26T14:07:41;2.90;;;2.70;;
15132;SDS011;7667;51.232;17.110;2023-06-26T14:10:10;3.53;;;2.67;;
15132;SDS011;7667;51.232;17.110;2023-06-26T14:12:37;4.43;;;2.95;;
15132;SDS011;7667;51.232;17.110;2023-06-26T14:15:06;3.53;;;2.65;;
15132;SDS011;7667;51.232;17.110;2023-06-26T14:17:35;2.60;;;2.40;;
15132;SDS011;7667;51.232;17.110;2023-06-26T14:20:02;3.42;;;2.85;;
15132;SDS011;7667;51.232;17.110;2023-06-26T14:22:39;2.92;;;2.65;;
15132;SDS011;7667;51.232;17.110;2023-06-26T14:25:10;3.88;;;2.47;;
15132;SDS011;7667;51.232;17.110;2023-06-26T14:27:39;4.53;;;2.75;;
15132;SDS011;7667;51.232;17.110;2023-06-26T14:30:07;2.50;;;2.30;;
15132;SDS011;7667;51.232;17.110;2023-06-26T14:32:35;4.22;;;2.85;;
15132;SDS011;7667;51.232;17.110;2023-06-26T14:35:03;3.42;;;2.65;;
15132;SDS011;7667;51.232;17.110;2023-06-26T14:37:31;3.60;;;2.85;;
15132;SDS011;7667;51.232;17.110;2023-06-26T14:39:59;3.03;;;2.72;;
15132;SDS011;7667;51.232;17.110;2023-06-26T14:42:27;2.65;;;2.45;;
15132;SDS011;7667;51.232;17.110;2023-06-26T14:44:55;3.67;;;2.88;;
15132;SDS011;7667;51.232;17.110;2023-06-26T14:47:23;3.25;;;2.60;;
15132;SDS011;7667;51.232;17.110;2023-06-26T14:49:52;3.60;;;2.50;;
15132;SDS011;7667;51.232;17.110;2023-06-26T14:52:20;3.05;;;2.78;;
15132;SDS011;7667;51.232;17.110;2023-06-26T14:54:48;3.20;;;2.90;;
15132;SDS011;7667;51.232;17.110;2023-06-26T14:57:16;3.38;;;2.78;;
15132;SDS011;7667;51.232;17.110;2023-06-26T14:59:43;2.67;;;2.33;;
15132;SDS011;7667;51.232;17.110;2023-06-26T15:02:11;4.35;;;2.60;;
15132;SDS011;7667;51.232;17.110;2023-06-26T15:04:38;2.50;;;2.30;;
15132;SDS011;7667;51.232;17.110;2023-06-26T15:07:06;2.90;;;2.70;;
15132;SDS011;7667;51.232;17.110;2023-06-26T15:09:34;2.83;;;2.63;;